Startpagina
METAR-TAF:

METAR-TAF

Vliegvelden :

Kermanshah, Iran

breedte: 34-16N, lengte: 047-07E, hoogte: 1320 m

Actueel weer

Dit bericht is 30 minuten geleden gemaakt, om 17:00 UTC
Wind 6 kt uit het oostzuidoosten
Temperatuur 7°C
Vochtigheid 70%
Druk 1015 hPa
Zicht 10 km of meer
Weinig wolken op 3500 ft, Cumulonimbus.
Verspreide wolken op 4000 ft
Gebroken wolken op 8000 ft

METAR: OICC 181700Z 12006KT 9999 FEW035CB SCT040 BKN080 07/02 Q1014 A2997

Tijdstip: 21:00 (17:30 UTC)


TAF: ontbreekt

Waarnemingen en weersverwachtingen van meer dan 4000 vliegvelden (METAR en TAF).

De beschikbare stations zijn de gele en rode punten op de kaart.

Ga met uw muis naar het station om de naam te zien.

Klik dan om waarnemingen en weersverwachtingen te zien.

kaart wijzigen: klik op de groene knoppen met een zwart kruis om in te zoomen, op de groene knop met een streepje om uit te zoomen of op de groene pijlen voor aangrenzende kaarten.


METAR-TAF: